createdAt,value
2023-04-15T00:00:01.276Z,4.39
2023-04-15T00:01:01.282Z,4.34
2023-04-15T00:02:01.366Z,4.33
2023-04-15T00:03:01.420Z,4.29
2023-04-15T00:04:01.350Z,4.28
2023-04-15T00:05:01.270Z,4.28
2023-04-15T00:06:01.230Z,4.25
2023-04-15T00:07:01.247Z,4.22
2023-04-15T00:08:01.201Z,4.22
2023-04-15T00:09:01.674Z,4.24
2023-04-15T00:10:01.204Z,4.25
2023-04-15T00:11:01.174Z,4.28
2023-04-15T00:12:01.153Z,4.29
2023-04-15T00:13:01.220Z,4.33
2023-04-15T00:14:01.205Z,4.32
2023-04-15T00:15:01.172Z,4.33
2023-04-15T00:16:01.109Z,4.32
2023-04-15T00:17:01.146Z,4.29
2023-04-15T00:18:01.163Z,4.25
2023-04-15T00:19:01.485Z,4.24
2023-04-15T00:20:01.072Z,4.22
2023-04-15T00:21:01.074Z,4.21
2023-04-15T00:22:01.109Z,4.19
2023-04-15T00:23:01.052Z,4.18
2023-04-15T00:24:01.091Z,4.15
2023-04-15T00:25:01.070Z,4.12
2023-04-15T00:26:01.039Z,4.08
2023-04-15T00:27:01.032Z,4.07
2023-04-15T00:28:01.114Z,4.03
2023-04-15T00:29:01.210Z,4.04
2023-04-15T00:30:00.967Z,4.03
2023-04-15T00:31:01.006Z,4.00
2023-04-15T00:32:00.930Z,4.00
2023-04-15T00:33:01.025Z,3.98
2023-04-15T00:34:00.912Z,3.98
2023-04-15T00:35:00.976Z,3.97
2023-04-15T00:36:00.930Z,3.97
2023-04-15T00:37:01.063Z,3.97
2023-04-15T00:38:00.902Z,3.97
2023-04-15T00:39:01.118Z,3.98
2023-04-15T00:40:00.884Z,3.98
2023-04-15T00:41:00.906Z,3.98
2023-04-15T00:42:00.877Z,3.98
2023-04-15T00:43:00.888Z,3.98
2023-04-15T00:44:00.848Z,3.98
2023-04-15T00:45:00.845Z,4.01
2023-04-15T00:46:00.941Z,4.01
2023-04-15T00:47:00.791Z,4.03
2023-04-15T00:48:00.924Z,4.03
2023-04-15T00:49:00.918Z,4.01
2023-04-15T00:50:00.839Z,4.07
2023-04-15T00:51:00.792Z,4.06
2023-04-15T00:52:00.779Z,4.07
2023-04-15T00:53:00.780Z,4.06
2023-04-15T00:54:00.734Z,4.07
2023-04-15T00:55:00.798Z,4.04
2023-04-15T00:56:00.729Z,4.04
2023-04-15T00:57:00.703Z,4.04
2023-04-15T00:58:00.729Z,4.01
2023-04-15T00:59:00.852Z,3.98
2023-04-15T01:00:00.672Z,3.96
2023-04-15T01:01:00.685Z,3.92
2023-04-15T01:02:00.864Z,3.92
2023-04-15T01:03:00.815Z,3.89
2023-04-15T01:04:00.812Z,3.86
2023-04-15T01:05:00.675Z,3.83
2023-04-15T01:06:03.394Z,3.82
2023-04-15T01:07:00.674Z,3.80
2023-04-15T01:08:00.657Z,3.78
2023-04-15T01:09:00.967Z,3.76
2023-04-15T01:10:00.582Z,3.75
2023-04-15T01:11:00.600Z,3.71
2023-04-15T01:12:00.602Z,3.71
2023-04-15T01:13:00.629Z,3.67
2023-04-15T01:14:00.523Z,3.67
2023-04-15T01:15:00.583Z,3.65
2023-04-15T01:16:00.631Z,3.70
2023-04-15T01:17:00.544Z,3.71
2023-04-15T01:18:00.604Z,3.75
2023-04-15T01:19:00.752Z,3.75
2023-04-15T01:20:01.023Z,3.72
2023-04-15T01:21:00.487Z,3.72
2023-04-15T01:22:00.801Z,3.71
2023-04-15T01:23:00.828Z,3.71
2023-04-15T01:24:00.609Z,3.70
2023-04-15T01:25:00.514Z,3.71
2023-04-15T01:26:01.344Z,3.72
2023-04-15T01:27:00.626Z,3.75
2023-04-15T01:28:00.566Z,3.78
2023-04-15T01:29:00.603Z,3.79
2023-04-15T01:30:00.373Z,3.79
2023-04-15T01:31:00.482Z,3.79
2023-04-15T01:32:00.376Z,3.80
2023-04-15T01:33:00.377Z,3.79
2023-04-15T01:34:00.504Z,3.76
2023-04-15T01:35:00.512Z,3.78
2023-04-15T01:36:00.400Z,3.78
2023-04-15T01:37:00.332Z,3.79
2023-04-15T01:38:00.484Z,3.79
2023-04-15T01:39:00.861Z,3.83
2023-04-15T01:40:00.620Z,3.85
2023-04-15T01:41:00.443Z,3.88
2023-04-15T01:42:00.463Z,3.90
2023-04-15T01:43:00.273Z,3.94
2023-04-15T01:44:00.288Z,4.01
2023-04-15T01:45:00.367Z,4.14
2023-04-15T01:46:00.392Z,4.21
2023-04-15T01:47:00.349Z,4.26
2023-04-15T01:48:00.441Z,4.32
2023-04-15T01:49:00.416Z,4.36
2023-04-15T01:50:00.364Z,4.39
2023-04-15T01:51:00.222Z,4.43
2023-04-15T01:52:00.311Z,4.44
2023-04-15T01:53:00.352Z,4.47
2023-04-15T01:54:00.262Z,4.52
2023-04-15T01:55:00.202Z,4.52
2023-04-15T01:56:00.167Z,4.54
2023-04-15T01:57:00.129Z,4.55
2023-04-15T01:58:00.231Z,4.55
2023-04-15T01:59:00.426Z,4.57
2023-04-15T02:00:00.114Z,4.58
2023-04-15T02:01:00.551Z,4.58
2023-04-15T02:02:00.240Z,4.58
2023-04-15T02:03:00.455Z,4.57
2023-04-15T02:04:00.087Z,4.52
2023-04-15T02:05:00.169Z,4.51
2023-04-15T02:06:00.035Z,4.46
2023-04-15T02:07:00.057Z,4.43
2023-04-15T02:07:59.989Z,4.39
2023-04-15T02:09:00.610Z,4.37
2023-04-15T02:09:59.991Z,4.33
2023-04-15T02:11:00.204Z,4.28
2023-04-15T02:11:59.967Z,4.25
2023-04-15T02:12:59.997Z,4.22
2023-04-15T02:14:00.060Z,4.21
2023-04-15T02:14:59.951Z,4.22
2023-04-15T02:16:00.155Z,4.24
2023-04-15T02:17:00.142Z,4.21
2023-04-15T02:17:59.903Z,4.16
2023-04-15T02:19:00.216Z,4.14
2023-04-15T02:19:59.884Z,4.12
2023-04-15T02:20:59.867Z,4.08
2023-04-15T02:21:59.846Z,4.06
2023-04-15T02:22:59.852Z,4.06
2023-04-15T02:23:59.980Z,4.03
2023-04-15T02:24:59.982Z,4.00
2023-04-15T02:26:00.006Z,3.94
2023-04-15T02:26:59.854Z,3.90
2023-04-15T02:27:59.977Z,3.89
2023-04-15T02:28:59.960Z,3.86
2023-04-15T02:29:59.834Z,3.83
2023-04-15T02:30:59.854Z,3.82
2023-04-15T02:31:59.947Z,3.82
2023-04-15T02:32:59.917Z,3.82
2023-04-15T02:33:59.923Z,3.83
2023-04-15T02:34:59.782Z,3.82
2023-04-15T02:35:59.908Z,3.79
2023-04-15T02:36:59.802Z,3.78
2023-04-15T02:37:59.770Z,3.78
2023-04-15T02:39:00.399Z,3.75
2023-04-15T02:39:59.939Z,3.72
2023-04-15T02:40:59.852Z,3.75
2023-04-15T02:41:59.856Z,3.78
2023-04-15T02:42:59.808Z,3.82
2023-04-15T02:43:59.630Z,3.86
2023-04-15T02:44:59.650Z,3.88
2023-04-15T02:45:59.860Z,3.90
2023-04-15T02:47:00.041Z,3.90
2023-04-15T02:47:59.913Z,3.94
2023-04-15T02:49:00.192Z,3.96
2023-04-15T02:49:59.680Z,4.00
2023-04-15T02:50:59.714Z,4.03
2023-04-15T02:51:59.791Z,4.07
2023-04-15T02:52:59.759Z,4.16
2023-04-15T02:53:59.704Z,4.21
2023-04-15T02:54:59.571Z,4.24
2023-04-15T02:55:59.652Z,4.28
2023-04-15T02:56:59.753Z,4.28
2023-04-15T02:57:59.542Z,4.33
2023-04-15T02:58:59.741Z,4.28
2023-04-15T02:59:59.515Z,4.32
2023-04-15T03:00:59.673Z,4.32
2023-04-15T03:01:59.640Z,4.32
2023-04-15T03:02:59.751Z,4.40
2023-04-15T03:03:59.666Z,4.44
2023-04-15T03:04:59.571Z,4.47
2023-04-15T03:05:59.634Z,4.46
2023-04-15T03:06:59.721Z,4.44
2023-04-15T03:07:59.402Z,4.44
2023-04-15T03:08:59.729Z,4.44
2023-04-15T03:09:59.521Z,4.47
2023-04-15T03:10:59.381Z,4.42
2023-04-15T03:11:59.731Z,4.43
2023-04-15T03:12:59.407Z,4.43
2023-04-15T03:13:59.464Z,4.44
2023-04-15T03:14:59.402Z,4.44
2023-04-15T03:15:59.441Z,4.46
2023-04-15T03:16:59.320Z,4.42
2023-04-15T03:17:59.330Z,4.37
2023-04-15T03:18:59.744Z,4.37
2023-04-15T03:19:59.325Z,4.44
2023-04-15T03:20:59.377Z,4.44
2023-04-15T03:21:59.332Z,4.44
2023-04-15T03:22:59.286Z,4.44
2023-04-15T03:23:59.321Z,4.43
2023-04-15T03:24:59.392Z,4.43
2023-04-15T03:25:59.260Z,4.40
2023-04-15T03:26:59.391Z,4.39
2023-04-15T03:27:59.208Z,4.36
2023-04-15T03:28:59.503Z,4.34
2023-04-15T03:29:59.356Z,4.37
2023-04-15T03:30:59.395Z,4.42
2023-04-15T03:31:59.188Z,4.44
2023-04-15T03:32:59.275Z,4.43
2023-04-15T03:33:59.351Z,4.46
2023-04-15T03:34:59.170Z,4.47
2023-04-15T03:35:59.124Z,4.47
2023-04-15T03:36:59.372Z,4.47
2023-04-15T03:37:59.130Z,4.47
2023-04-15T03:38:59.254Z,4.47
2023-04-15T03:39:59.401Z,4.46
2023-04-15T03:40:59.208Z,4.51
2023-04-15T03:41:59.119Z,4.54
2023-04-15T03:42:59.157Z,4.52
2023-04-15T03:43:59.191Z,4.57
2023-04-15T03:44:59.048Z,4.57
2023-04-15T03:46:01.400Z,4.57
2023-04-15T03:46:59.293Z,4.57
2023-04-15T03:48:11.478Z,4.54
2023-04-15T03:48:59.246Z,4.54
2023-04-15T03:49:59.023Z,4.52
2023-04-15T03:50:59.131Z,4.50
2023-04-15T03:51:58.969Z,4.46
2023-04-15T03:52:58.983Z,4.44
2023-04-15T03:53:59.175Z,4.46
2023-04-15T03:54:59.217Z,4.46
2023-04-15T03:55:59.196Z,4.46
2023-04-15T03:56:59.057Z,4.44
2023-04-15T03:57:58.963Z,4.46
2023-04-15T03:58:59.223Z,4.51
2023-04-15T03:59:59.244Z,4.57
2023-04-15T04:00:58.933Z,4.54
2023-04-15T04:01:59.045Z,4.52
2023-04-15T04:02:59.166Z,4.50
2023-04-15T04:03:59.045Z,4.50
2023-04-15T04:04:58.996Z,4.50
2023-04-15T04:05:58.918Z,4.47
2023-04-15T04:06:59.043Z,4.47
2023-04-15T04:07:59.022Z,4.50
2023-04-15T04:08:59.421Z,4.47
2023-04-15T04:09:58.823Z,4.44
2023-04-15T04:10:59.026Z,4.50
2023-04-15T04:11:59.158Z,4.50
2023-04-15T04:12:58.914Z,4.47
2023-04-15T04:13:58.761Z,4.43
2023-04-15T04:14:58.831Z,4.42
2023-04-15T04:15:59.005Z,4.44
2023-04-15T04:16:58.775Z,4.43
2023-04-15T04:17:58.902Z,4.42
2023-04-15T04:18:58.977Z,4.40
2023-04-15T04:19:59.149Z,4.40
2023-04-15T04:20:58.833Z,4.39
2023-04-15T04:21:58.679Z,4.39
2023-04-15T04:22:58.684Z,4.36
2023-04-15T04:23:58.650Z,4.33
2023-04-15T04:24:58.912Z,4.34
2023-04-15T04:25:58.641Z,4.34
2023-04-15T04:26:58.674Z,4.34
2023-04-15T04:27:58.656Z,4.26
2023-04-15T04:28:59.019Z,4.28
2023-04-15T04:29:58.643Z,4.29
2023-04-15T04:30:58.679Z,4.32
2023-04-15T04:31:58.675Z,4.32
2023-04-15T04:32:58.718Z,4.29
2023-04-15T04:33:58.594Z,4.26
2023-04-15T04:34:58.567Z,4.26
2023-04-15T04:35:58.550Z,4.24
2023-04-15T04:36:58.577Z,4.25
2023-04-15T04:37:58.507Z,4.28
2023-04-15T04:38:58.703Z,4.26
2023-04-15T04:39:58.615Z,4.26
2023-04-15T04:40:58.678Z,4.25
2023-04-15T04:41:58.481Z,4.24
2023-04-15T04:42:58.517Z,4.25
2023-04-15T04:43:58.546Z,4.26
2023-04-15T04:44:58.619Z,4.26
2023-04-15T04:45:58.631Z,4.28
2023-04-15T04:46:58.615Z,4.32
2023-04-15T04:47:58.475Z,4.32
2023-04-15T04:48:58.487Z,4.28
2023-04-15T04:49:58.420Z,4.28
2023-04-15T04:50:58.482Z,4.28
2023-04-15T04:51:58.379Z,4.28
2023-04-15T04:52:58.472Z,4.26
2023-04-15T04:53:58.607Z,4.25
2023-04-15T04:54:58.642Z,4.24
2023-04-15T04:55:58.365Z,4.25
2023-04-15T04:56:58.337Z,4.25
2023-04-15T04:57:58.408Z,4.24
2023-04-15T04:58:58.417Z,4.16
2023-04-15T04:59:58.461Z,4.16
2023-04-15T05:00:58.367Z,4.12
2023-04-15T05:01:58.569Z,4.06
2023-04-15T05:02:58.525Z,4.04
2023-04-15T05:03:58.516Z,4.08
2023-04-15T05:04:58.454Z,4.10
2023-04-15T05:05:58.236Z,4.12
2023-04-15T05:06:58.461Z,4.15
2023-04-15T05:07:58.449Z,4.16
2023-04-15T05:08:58.527Z,4.15
2023-04-15T05:09:58.308Z,4.18
2023-04-15T05:10:58.552Z,4.21
2023-04-15T05:11:58.239Z,4.28
2023-04-15T05:12:58.305Z,4.29
2023-04-15T05:13:58.166Z,4.29
2023-04-15T05:14:58.204Z,4.29
2023-04-15T05:15:58.174Z,4.29
2023-04-15T05:16:58.596Z,4.34
2023-04-15T05:17:58.310Z,4.33
2023-04-15T05:18:58.160Z,4.34
2023-04-15T05:19:58.359Z,4.36
2023-04-15T05:20:58.205Z,4.36
2023-04-15T05:21:58.308Z,4.37
2023-04-15T05:22:58.230Z,4.40
2023-04-15T05:23:58.356Z,4.42
2023-04-15T05:24:58.329Z,4.46
2023-04-15T05:25:58.096Z,4.46
2023-04-15T05:26:58.243Z,4.47
2023-04-15T05:27:58.068Z,4.47
2023-04-15T05:28:58.164Z,4.52
2023-04-15T05:29:58.042Z,4.55
2023-04-15T05:30:58.349Z,4.58
2023-04-15T05:31:58.110Z,4.62
2023-04-15T05:32:58.193Z,4.64
2023-04-15T05:33:58.038Z,4.65
2023-04-15T05:34:58.064Z,4.64
2023-04-15T05:35:58.276Z,4.64
2023-04-15T05:36:58.105Z,4.67
2023-04-15T05:37:58.023Z,4.70
2023-04-15T05:38:58.063Z,4.72
2023-04-15T05:39:57.934Z,4.73
2023-04-15T05:40:58.181Z,4.75
2023-04-15T05:41:57.984Z,4.76
2023-04-15T05:42:57.933Z,4.79
2023-04-15T05:43:58.008Z,4.80
2023-04-15T05:44:57.921Z,4.91
2023-04-15T05:45:57.973Z,4.98
2023-04-15T05:46:57.842Z,5.01
2023-04-15T05:47:58.057Z,5.04
2023-04-15T05:48:58.077Z,5.09
2023-04-15T05:49:57.828Z,5.12
2023-04-15T05:50:58.039Z,5.16
2023-04-15T05:51:58.120Z,5.22
2023-04-15T05:52:58.022Z,5.27
2023-04-15T05:53:57.958Z,5.28
2023-04-15T05:54:58.361Z,5.32
2023-04-15T05:55:57.777Z,5.37
2023-04-15T05:56:58.115Z,5.40
2023-04-15T05:57:57.779Z,5.48
2023-04-15T05:58:57.967Z,5.55
2023-04-15T05:59:57.754Z,5.64
2023-04-15T06:00:57.717Z,5.71
2023-04-15T06:01:57.804Z,5.81
2023-04-15T06:02:57.823Z,5.91
2023-04-15T06:03:57.832Z,6.01
2023-04-15T06:04:58.338Z,6.11
2023-04-15T06:05:57.895Z,6.25
2023-04-15T06:06:57.768Z,6.32
2023-04-15T06:07:57.930Z,6.41
2023-04-15T06:08:57.671Z,6.51
2023-04-15T06:09:57.645Z,6.59
2023-04-15T06:10:57.916Z,6.66
2023-04-15T06:11:57.891Z,6.72
2023-04-15T06:12:57.789Z,6.80
2023-04-15T06:13:57.679Z,6.90
2023-04-15T06:14:59.587Z,6.98
2023-04-15T06:15:57.627Z,7.04
2023-04-15T06:16:57.708Z,7.08
2023-04-15T06:17:58.059Z,7.19
2023-04-15T06:18:57.835Z,7.26
2023-04-15T06:19:58.037Z,7.35
2023-04-15T06:20:57.906Z,7.40
2023-04-15T06:21:57.932Z,7.47
2023-04-15T06:22:58.141Z,7.55
2023-04-15T06:23:58.121Z,7.60
2023-04-15T06:24:58.035Z,7.63
2023-04-15T06:25:57.465Z,7.71
2023-04-15T06:26:57.652Z,7.77
2023-04-15T06:27:57.600Z,7.82
2023-04-15T06:28:57.670Z,7.92
2023-04-15T06:29:57.593Z,8.00
2023-04-15T06:30:57.679Z,8.08
2023-04-15T06:31:57.851Z,8.15
2023-04-15T06:32:57.812Z,8.20
2023-04-15T06:33:57.426Z,8.30
2023-04-15T06:34:57.504Z,8.39
2023-04-15T06:35:57.561Z,8.45
2023-04-15T06:36:57.794Z,8.48
2023-04-15T06:37:57.598Z,8.62
2023-04-15T06:38:57.373Z,8.76
2023-04-15T06:39:57.385Z,8.91
2023-04-15T06:40:57.330Z,8.99
2023-04-15T06:41:57.464Z,9.10
2023-04-15T06:42:57.360Z,9.24
2023-04-15T06:43:57.842Z,9.35
2023-04-15T06:44:57.368Z,9.48
2023-04-15T06:45:57.327Z,9.61
2023-04-15T06:46:57.263Z,9.66
2023-04-15T06:47:57.290Z,9.70
2023-04-15T06:48:57.364Z,9.79
2023-04-15T06:49:57.317Z,9.83
2023-04-15T06:50:57.611Z,9.89
2023-04-15T06:51:57.432Z,10.01
2023-04-15T06:52:57.367Z,10.15
2023-04-15T06:53:57.858Z,10.22
2023-04-15T06:54:57.204Z,10.30
2023-04-15T06:55:57.195Z,10.42
2023-04-15T06:56:57.643Z,10.52
2023-04-15T06:57:57.168Z,10.65
2023-04-15T06:58:57.246Z,10.77
2023-04-15T06:59:57.328Z,10.95
2023-04-15T07:00:57.220Z,11.11
2023-04-15T07:01:57.214Z,11.20
2023-04-15T07:02:57.153Z,11.28
2023-04-15T07:03:57.314Z,11.44
2023-04-15T07:04:57.243Z,11.50
2023-04-15T07:05:57.276Z,11.62
2023-04-15T07:06:57.243Z,11.75
2023-04-15T07:07:57.248Z,11.90
2023-04-15T07:08:57.041Z,11.94
2023-04-15T07:09:57.059Z,11.75
2023-04-15T07:10:57.420Z,11.64
2023-04-15T07:11:57.060Z,11.54
2023-04-15T07:12:57.546Z,11.50
2023-04-15T07:13:57.021Z,11.54
2023-04-15T07:14:57.098Z,11.54
2023-04-15T07:15:57.233Z,11.68
2023-04-15T07:16:56.995Z,11.77
2023-04-15T07:17:57.012Z,11.74
2023-04-15T07:18:56.995Z,11.78
2023-04-15T07:19:56.961Z,11.78
2023-04-15T07:20:57.072Z,11.86
2023-04-15T07:21:57.141Z,11.90
2023-04-15T07:22:56.929Z,11.99
2023-04-15T07:23:56.895Z,12.01
2023-04-15T07:24:56.915Z,12.11
2023-04-15T07:25:56.883Z,12.12
2023-04-15T07:26:58.515Z,12.15
2023-04-15T07:27:56.882Z,12.23
2023-04-15T07:28:57.066Z,12.23
2023-04-15T07:29:56.872Z,12.30
2023-04-15T07:30:57.262Z,12.33
2023-04-15T07:31:56.871Z,12.34
2023-04-15T07:32:57.076Z,12.45
2023-04-15T07:33:56.842Z,12.49
2023-04-15T07:34:57.181Z,12.38
2023-04-15T07:35:56.924Z,12.37
2023-04-15T07:36:56.863Z,12.31
2023-04-15T07:37:56.838Z,12.26
2023-04-15T07:38:56.941Z,12.15
2023-04-15T07:39:56.935Z,11.89
2023-04-15T07:40:56.835Z,11.83
2023-04-15T07:41:56.753Z,11.94
2023-04-15T07:42:57.253Z,12.08
2023-04-15T07:43:56.845Z,12.09
2023-04-15T07:44:56.919Z,12.06
2023-04-15T07:45:56.904Z,11.94
2023-04-15T07:46:56.688Z,11.83
2023-04-15T07:47:56.871Z,11.80
2023-04-15T07:48:57.217Z,11.74
2023-04-15T07:49:56.707Z,11.75
2023-04-15T07:50:56.622Z,11.87
2023-04-15T07:51:56.875Z,11.99
2023-04-15T07:52:56.956Z,11.86
2023-04-15T07:53:56.642Z,11.78
2023-04-15T07:54:56.746Z,11.64
2023-04-15T07:55:57.028Z,11.82
2023-04-15T07:56:56.758Z,11.96
2023-04-15T07:57:56.755Z,12.08
2023-04-15T07:58:56.717Z,12.13
2023-04-15T07:59:56.724Z,12.15
2023-04-15T08:00:56.572Z,12.27
2023-04-15T08:01:57.229Z,12.42
2023-04-15T08:02:57.069Z,12.54
2023-04-15T08:03:57.128Z,12.67
2023-04-15T08:04:56.614Z,12.71
2023-04-15T08:05:56.479Z,12.78
2023-04-15T08:06:56.534Z,12.88
2023-04-15T08:07:56.796Z,13.02
2023-04-15T08:08:56.544Z,13.00
2023-04-15T08:09:56.473Z,12.97
2023-04-15T08:10:56.522Z,13.07
2023-04-15T08:11:56.693Z,13.15
2023-04-15T08:12:56.492Z,13.06
2023-04-15T08:13:56.998Z,12.92
2023-04-15T08:14:56.437Z,12.96
2023-04-15T08:15:56.529Z,13.14
2023-04-15T08:16:56.440Z,13.17
2023-04-15T08:17:56.619Z,13.17
2023-04-15T08:18:56.550Z,13.25
2023-04-15T08:19:56.349Z,13.15
2023-04-15T08:20:56.661Z,13.00
2023-04-15T08:21:56.420Z,12.93
2023-04-15T08:22:56.338Z,12.69
2023-04-15T08:23:56.333Z,12.67
2023-04-15T08:24:56.552Z,12.67
2023-04-15T08:25:56.543Z,12.75
2023-04-15T08:26:56.306Z,12.74
2023-04-15T08:27:56.537Z,12.69
2023-04-15T08:28:56.232Z,12.71
2023-04-15T08:29:56.224Z,12.67
2023-04-15T08:30:56.266Z,12.70
2023-04-15T08:31:56.320Z,12.79
2023-04-15T08:32:56.234Z,12.88
2023-04-15T08:33:56.181Z,12.93
2023-04-15T08:34:56.223Z,13.17
2023-04-15T08:35:56.275Z,13.36
2023-04-15T08:36:56.173Z,13.46
2023-04-15T08:37:56.257Z,13.37
2023-04-15T08:38:56.443Z,13.46
2023-04-15T08:39:56.566Z,13.46
2023-04-15T08:40:56.110Z,13.63
2023-04-15T08:41:56.244Z,13.71
2023-04-15T08:42:56.739Z,13.80
2023-04-15T08:43:56.098Z,13.91
2023-04-15T08:44:56.288Z,14.10
2023-04-15T08:45:56.139Z,14.02
2023-04-15T08:46:56.594Z,13.98
2023-04-15T08:47:56.623Z,14.02
2023-04-15T08:48:56.213Z,14.20
2023-04-15T08:49:56.156Z,14.35
2023-04-15T08:50:56.200Z,14.69
2023-04-15T08:51:56.149Z,14.80
2023-04-15T08:52:55.994Z,15.13
2023-04-15T08:53:56.161Z,15.33
2023-04-15T08:54:56.027Z,15.57
2023-04-15T08:55:55.960Z,15.57
2023-04-15T08:56:55.969Z,15.59
2023-04-15T08:57:55.957Z,15.35
2023-04-15T08:58:56.016Z,15.20
2023-04-15T08:59:55.947Z,15.38
2023-04-15T09:00:56.214Z,15.42
2023-04-15T09:01:55.935Z,15.42
2023-04-15T09:02:56.008Z,15.17
2023-04-15T09:03:56.071Z,15.08
2023-04-15T09:04:56.164Z,14.90
2023-04-15T09:05:55.989Z,14.75
2023-04-15T09:06:55.995Z,15.12
2023-04-15T09:07:55.910Z,15.20
2023-04-15T09:08:55.887Z,15.56
2023-04-15T09:09:55.942Z,15.66
2023-04-15T09:10:55.843Z,15.33
2023-04-15T09:11:55.909Z,15.23
2023-04-15T09:12:55.807Z,15.21
2023-04-15T09:13:55.881Z,15.17
2023-04-15T09:14:55.794Z,15.23
2023-04-15T09:15:55.859Z,15.52
2023-04-15T09:16:56.069Z,15.76
2023-04-15T09:17:55.973Z,16.31
2023-04-15T09:18:55.932Z,16.38
2023-04-15T09:19:55.717Z,16.15
2023-04-15T09:20:55.772Z,15.97
2023-04-15T09:21:58.084Z,16.07
2023-04-15T09:22:56.053Z,16.33
2023-04-15T09:23:55.865Z,16.40
2023-04-15T09:24:55.912Z,16.33
2023-04-15T09:25:55.682Z,16.14
2023-04-15T09:26:55.871Z,16.35
2023-04-15T09:27:55.779Z,15.81
2023-04-15T09:28:55.693Z,15.02
2023-04-15T09:29:55.693Z,14.83
2023-04-15T09:30:55.801Z,14.69
2023-04-15T09:31:55.649Z,14.56
2023-04-15T09:32:55.833Z,14.53
2023-04-15T09:33:55.661Z,14.12
2023-04-15T09:34:55.767Z,13.81
2023-04-15T09:35:55.628Z,13.55
2023-04-15T09:36:55.659Z,13.61
2023-04-15T09:37:55.561Z,13.56
2023-04-15T09:38:55.883Z,13.65
2023-04-15T09:39:55.511Z,13.96
2023-04-15T09:40:55.576Z,14.09
2023-04-15T09:41:55.541Z,14.12
2023-04-15T09:42:55.558Z,14.09
2023-04-15T09:43:55.584Z,14.14
2023-04-15T09:44:55.557Z,14.38
2023-04-15T09:45:55.644Z,14.09
2023-04-15T09:46:55.498Z,13.63
2023-04-15T09:47:56.987Z,13.56
2023-04-15T09:48:55.506Z,13.61
2023-04-15T09:49:55.486Z,13.79
2023-04-15T09:50:55.632Z,13.71
2023-04-15T09:52:04.987Z,13.77
2023-04-15T09:52:55.559Z,13.76
2023-04-15T09:53:55.418Z,13.73
2023-04-15T09:54:55.490Z,13.92
2023-04-15T09:55:55.577Z,13.74
2023-04-15T09:56:55.398Z,13.69
2023-04-15T09:57:55.423Z,13.65
2023-04-15T09:58:55.447Z,13.81
2023-04-15T09:59:55.572Z,13.65
2023-04-15T10:00:55.385Z,13.43
2023-04-15T10:01:55.742Z,13.37
2023-04-15T10:02:55.403Z,13.49
2023-04-15T10:03:55.470Z,13.51
2023-04-15T10:04:55.316Z,13.67
2023-04-15T10:05:55.303Z,13.55
2023-04-15T10:06:55.320Z,13.44
2023-04-15T10:07:55.281Z,13.38
2023-04-15T10:08:55.312Z,13.32
2023-04-15T10:09:55.268Z,13.20
2023-04-15T10:10:55.293Z,12.97
2023-04-15T10:11:55.245Z,12.93
2023-04-15T10:12:55.251Z,12.96
2023-04-15T10:13:55.243Z,12.75
2023-04-15T10:14:55.203Z,12.78
2023-04-15T10:15:55.477Z,12.84
2023-04-15T10:16:55.188Z,12.89
2023-04-15T10:17:55.420Z,12.95
2023-04-15T10:18:55.307Z,12.87
2023-04-15T10:19:55.210Z,12.96
2023-04-15T10:20:55.140Z,13.14
2023-04-15T10:21:55.256Z,13.20
2023-04-15T10:22:55.123Z,13.51
2023-04-15T10:23:55.151Z,13.71
2023-04-15T10:24:55.229Z,13.67
2023-04-15T10:25:55.313Z,14.02
2023-04-15T10:26:55.176Z,14.01
2023-04-15T10:27:55.159Z,13.95
2023-04-15T10:28:55.166Z,13.83
2023-04-15T10:29:55.046Z,13.63
2023-04-15T10:30:55.171Z,13.36
2023-04-15T10:31:55.188Z,13.00
2023-04-15T10:32:55.045Z,12.62
2023-04-15T10:33:55.214Z,12.48
2023-04-15T10:34:55.003Z,12.39
2023-04-15T10:35:54.961Z,12.41
2023-04-15T10:36:55.230Z,12.59
2023-04-15T10:37:55.033Z,12.67
2023-04-15T10:38:54.976Z,12.77
2023-04-15T10:39:54.983Z,12.87
2023-04-15T10:40:55.096Z,12.96
2023-04-15T10:41:55.221Z,13.24
2023-04-15T10:42:54.960Z,13.18
2023-04-15T10:43:55.119Z,13.18
2023-04-15T10:44:55.442Z,13.25
2023-04-15T10:45:54.908Z,13.29
2023-04-15T10:46:54.899Z,13.67
2023-04-15T10:47:54.962Z,14.10
2023-04-15T10:48:54.885Z,14.43
2023-04-15T10:49:54.890Z,14.56
2023-04-15T10:50:54.918Z,14.52
2023-04-15T10:51:54.821Z,14.28
2023-04-15T10:52:54.847Z,14.07
2023-04-15T10:53:54.867Z,13.89
2023-04-15T10:54:54.811Z,13.49
2023-04-15T10:55:54.820Z,13.15
2023-04-15T10:56:54.944Z,13.02
2023-04-15T10:57:54.788Z,12.88
2023-04-15T10:58:54.838Z,12.74
2023-04-15T10:59:54.941Z,12.52
2023-04-15T11:00:55.132Z,12.34
2023-04-15T11:01:55.032Z,12.20
2023-04-15T11:02:54.891Z,12.12
2023-04-15T11:03:54.996Z,12.09
2023-04-15T11:04:55.113Z,12.05
2023-04-15T11:05:54.718Z,12.06
2023-04-15T11:06:55.025Z,12.11
2023-04-15T11:07:54.760Z,12.23
2023-04-15T11:08:54.697Z,12.26
2023-04-15T11:09:54.755Z,12.33
2023-04-15T11:10:54.857Z,12.44
2023-04-15T11:11:54.645Z,12.48
2023-04-15T11:12:54.687Z,12.46
2023-04-15T11:13:54.659Z,12.48
2023-04-15T11:14:54.729Z,12.45
2023-04-15T11:15:54.624Z,12.45
2023-04-15T11:16:54.616Z,12.38
2023-04-15T11:17:54.735Z,12.39
2023-04-15T11:18:54.557Z,12.31
2023-04-15T11:19:54.731Z,12.33
2023-04-15T11:20:54.735Z,12.39
2023-04-15T11:21:54.732Z,12.46
2023-04-15T11:23:07.996Z,12.45
2023-04-15T11:23:54.553Z,12.45
2023-04-15T11:24:54.522Z,12.44
2023-04-15T11:25:54.622Z,12.39
2023-04-15T11:26:55.031Z,12.27
2023-04-15T11:27:54.899Z,12.21
2023-04-15T11:28:54.681Z,12.19
2023-04-15T11:29:54.427Z,12.21
2023-04-15T11:30:54.610Z,12.12
2023-04-15T11:31:54.661Z,12.13
2023-04-15T11:32:54.500Z,12.20
2023-04-15T11:33:54.428Z,12.16
2023-04-15T11:34:54.396Z,12.12
2023-04-15T11:35:54.395Z,12.02
2023-04-15T11:36:54.572Z,11.94
2023-04-15T11:37:54.345Z,11.77
2023-04-15T11:38:54.351Z,11.72
2023-04-15T11:39:54.427Z,11.72
2023-04-15T11:40:54.460Z,11.75
2023-04-15T11:41:54.317Z,11.62
2023-04-15T11:42:54.337Z,11.61
2023-04-15T11:43:54.421Z,11.61
2023-04-15T11:44:54.292Z,11.64
2023-04-15T11:45:54.350Z,11.65
2023-04-15T11:46:54.374Z,11.65
2023-04-15T11:47:54.351Z,11.59
2023-04-15T11:48:54.374Z,11.59
2023-04-15T11:49:54.264Z,11.53
2023-04-15T11:50:54.418Z,11.49
2023-04-15T11:51:54.296Z,11.53
2023-04-15T11:52:54.254Z,11.46
2023-04-15T11:53:54.209Z,11.49
2023-04-15T11:54:54.376Z,11.50
2023-04-15T11:55:54.809Z,11.47
2023-04-15T11:56:54.491Z,11.46
2023-04-15T11:57:54.163Z,11.43
2023-04-15T11:58:54.244Z,11.41
2023-04-15T11:59:54.184Z,11.39
2023-04-15T12:00:54.178Z,11.35
2023-04-15T12:01:54.193Z,11.25
2023-04-15T12:02:54.241Z,11.28
2023-04-15T12:03:54.202Z,11.27
2023-04-15T12:04:54.275Z,11.21
2023-04-15T12:05:54.192Z,11.24
2023-04-15T12:06:54.110Z,11.27
2023-04-15T12:07:54.230Z,11.29
2023-04-15T12:08:54.108Z,11.29
2023-04-15T12:09:54.127Z,11.27
2023-04-15T12:10:54.249Z,11.21
2023-04-15T12:11:54.112Z,11.19
2023-04-15T12:12:54.061Z,11.16
2023-04-15T12:13:54.024Z,11.11
2023-04-15T12:14:54.297Z,11.13
2023-04-15T12:15:54.338Z,11.13
2023-04-15T12:16:54.627Z,11.11
2023-04-15T12:17:54.533Z,11.14
2023-04-15T12:18:54.328Z,11.20
2023-04-15T12:19:54.160Z,11.27
2023-04-15T12:20:54.264Z,11.25
2023-04-15T12:21:54.010Z,11.21
2023-04-15T12:22:53.985Z,11.20
2023-04-15T12:23:54.133Z,11.20
2023-04-15T12:24:53.986Z,11.28
2023-04-15T12:25:53.931Z,11.29
2023-04-15T12:26:53.885Z,11.25
2023-04-15T12:27:53.892Z,11.16
2023-04-15T12:28:54.107Z,11.13
2023-04-15T12:29:53.849Z,11.17
2023-04-15T12:30:53.956Z,11.19
2023-04-15T12:31:53.865Z,11.16
2023-04-15T12:32:53.873Z,11.19
2023-04-15T12:33:53.962Z,11.20
2023-04-15T12:34:53.841Z,11.16
2023-04-15T12:35:54.008Z,11.17
2023-04-15T12:36:53.818Z,11.19
2023-04-15T12:37:53.770Z,11.17
2023-04-15T12:38:53.928Z,11.19
2023-04-15T12:39:53.772Z,11.21
2023-04-15T12:40:53.937Z,11.28
2023-04-15T12:41:53.726Z,11.28
2023-04-15T12:42:53.884Z,11.31
2023-04-15T12:43:53.892Z,11.32
2023-04-15T12:44:53.717Z,11.35
2023-04-15T12:45:53.790Z,11.39
2023-04-15T12:46:54.524Z,11.43
2023-04-15T12:47:53.932Z,11.49
2023-04-15T12:48:53.715Z,11.53
2023-04-15T12:49:53.622Z,11.59
2023-04-15T12:50:53.662Z,11.59
2023-04-15T12:51:53.765Z,11.56
2023-04-15T12:52:53.641Z,11.57
2023-04-15T12:53:53.613Z,11.56
2023-04-15T12:54:53.664Z,11.52
2023-04-15T12:55:53.652Z,11.53
2023-04-15T12:56:53.604Z,11.49
2023-04-15T12:57:53.589Z,11.36
2023-04-15T12:58:53.831Z,11.39
2023-04-15T12:59:53.710Z,11.39
2023-04-15T13:00:53.624Z,11.49
2023-04-15T13:01:54.145Z,11.54
2023-04-15T13:02:53.712Z,11.57
2023-04-15T13:03:53.729Z,11.59
2023-04-15T13:04:53.556Z,11.62